Time;durP1;ratioP1;P1;durP2;ratioP2;P2;SDS_P1;SDS_P2;PMS_P1;PMS_P2;Temp;Humidity;BMP_temperature;BMP_pressure;BME280_temperature;BME280_humidity;BME280_pressure;Samples;Min_cycle;Max_cycle;Signal;HPM_P1;HPM_P2
2023/08/25 01:19:51;;;;;;;7.03;6.53;;;22.30;1.00;;;;;;3213278;26;20489;-94
2023/08/25 01:22:42;;;;;;;7.03;6.53;;;22.30;1.00;;;;;;4992463;28;20434;-93
2023/08/25 01:25:56;;;;;;;7.43;6.53;;;22.30;1.00;;;;;;4988151;28;20478;-92
2023/08/25 01:45:50;;;;;;;7.83;7.13;;;22.20;1.00;;;;;;4132674;26;20492;-94
2023/08/25 01:49:14;;;;;;;8.77;7.77;;;22.10;1.00;;;;;;4985080;28;20460;-94
2023/08/25 01:52:26;;;;;;;8.10;7.37;;;22.00;1.00;;;;;;4988928;28;20473;-94
2023/08/25 02:21:44;;;;;;;8.43;7.73;;;21.90;1.00;;;;;;5057621;23;20492;-90
2023/08/25 04:18:27;;;;;;;9.80;9.00;;;21.40;43.00;;;;;;3233663;26;20524;-90
2023/08/25 04:21:08;;;;;;;9.60;8.23;;;;;;;;;;5000109;28;20464;-90
2023/08/25 04:23:56;;;;;;;;;;;;;;;;;;;;;
2023/08/25 04:32:24;;;;;;;;;;;;;;;;;;;;;
2023/08/25 04:51:49;;;;;;;13.10;9.77;;;21.50;57.80;;;;;;4900408;29;20942;-88
2023/08/25 05:13:55;;;;;;;10.27;9.33;;;;;;;;;;4992847;28;20437;-88
2023/08/25 05:16:42;;;;;;;11.10;10.00;;;;;;;;;;4998234;28;20480;-88
2023/08/25 05:19:16;;;;;;;10.40;9.37;;;;;;;;;;4997041;28;20920;-88
2023/08/25 05:48:12;;;;;;;9.80;8.90;;;22.10;1.00;;;;;;4998519;28;20480;-92
2023/08/25 05:50:40;;;;;;;10.27;9.30;;;22.00;1.00;;;;;;5002260;28;20452;-85
2023/08/25 05:53:07;;;;;;;10.30;9.30;;;22.10;1.00;;;;;;4999083;28;20452;-85
2023/08/25 05:55:34;;;;;;;9.53;8.63;;;22.30;99.90;;;;;;5001462;28;20448;-85
2023/08/25 05:58:01;;;;;;;19.03;9.80;;;22.00;1.00;;;;;;5002924;28;20456;-85
2023/08/25 06:00:29;;;;;;;12.47;9.83;;;21.80;99.90;;;;;;5002277;28;20544;-87
2023/08/25 06:02:56;;;;;;;13.73;9.97;;;22.00;1.00;;;;;;5002576;28;20464;-86
2023/08/25 06:05:22;;;;;;;12.00;10.80;;;22.00;1.00;;;;;;5004115;28;20526;-86
2023/08/25 06:07:51;;;;;;;11.10;10.00;;;21.90;1.00;;;;;;5010147;28;20794;-85
2023/08/25 06:10:17;;;;;;;10.27;9.20;;;22.10;1.00;;;;;;4998842;28;20538;-84
2023/08/25 06:12:44;;;;;;;11.53;10.53;;;22.10;99.90;;;;;;5002221;28;20559;-86
2023/08/25 06:15:12;;;;;;;10.20;9.43;;;22.10;1.00;;;;;;5000723;28;20448;-86
2023/08/25 06:17:38;;;;;;;13.47;12.27;;;22.20;1.00;;;;;;5000031;28;20457;-85
2023/08/25 06:20:07;;;;;;;12.37;11.00;;;22.20;1.00;;;;;;5003350;28;20952;-86
2023/08/25 06:22:34;;;;;;;11.10;10.00;;;22.30;1.00;;;;;;5001504;28;20580;-86
2023/08/25 06:25:02;;;;;;;13.03;11.33;;;22.30;1.00;;;;;;5002308;28;20841;-86
2023/08/25 06:27:29;;;;;;;11.30;10.20;;;22.40;1.00;;;;;;5002030;28;20452;-86
2023/08/25 06:29:56;;;;;;;12.60;9.83;;;22.30;1.00;;;;;;5001205;28;20524;-86
2023/08/25 06:32:23;;;;;;;10.00;8.90;;;22.40;1.00;;;;;;5008436;28;20472;-84
2023/08/25 06:34:53;;;;;;;14.20;11.03;;;22.50;1.00;;;;;;5009902;28;20457;-87
2023/08/25 06:37:20;;;;;;;10.90;9.90;;;22.50;1.00;;;;;;5009370;28;20464;-86
2023/08/25 06:39:47;;;;;;;10.27;9.37;;;22.50;1.00;;;;;;5003129;28;20444;-85
2023/08/25 06:42:16;;;;;;;12.13;10.30;;;22.60;1.00;;;;;;5003431;28;20564;-84
2023/08/25 06:44:43;;;;;;;11.33;10.43;;;22.80;1.00;;;;;;5004149;28;20955;-86
2023/08/25 06:47:13;;;;;;;11.47;10.50;;;22.70;1.00;;;;;;5005771;28;20440;-87
2023/08/25 06:49:40;;;;;;;14.33;13.13;;;23.20;99.90;;;;;;5004419;28;20448;-85
2023/08/25 06:52:07;;;;;;;12.60;11.57;;;22.90;1.00;;;;;;5001166;28;20468;-85
2023/08/25 06:54:34;;;;;;;10.90;9.90;;;;;;;;;;5000897;28;20444;-85
2023/08/25 06:57:01;;;;;;;14.00;12.53;;;23.10;99.90;;;;;;5008221;28;20451;-86
2023/08/25 06:59:29;;;;;;;11.03;9.90;;;23.20;1.00;;;;;;5003479;28;20448;-87
2023/08/25 07:01:57;;;;;;;12.53;11.33;;;23.20;1.00;;;;;;5003747;28;20496;-87
2023/08/25 07:04:24;;;;;;;12.33;10.47;;;23.40;1.00;;;;;;5003040;28;20479;-85
2023/08/25 07:06:51;;;;;;;10.07;9.30;;;23.30;1.00;;;;;;5002420;28;20516;-86
2023/08/25 07:09:18;;;;;;;10.73;9.70;;;24.00;99.90;;;;;;5002649;28;20511;-86
2023/08/25 07:11:47;;;;;;;11.77;10.73;;;23.60;99.90;;;;;;5002335;28;20456;-87
2023/08/25 07:14:14;;;;;;;11.07;10.17;;;25.20;1.00;;;;;;5003929;28;20476;-86
2023/08/25 07:16:42;;;;;;;12.30;11.20;;;23.20;99.90;;;;;;5015135;28;20437;-84
2023/08/25 07:19:09;;;;;;;10.67;9.80;;;23.70;1.00;;;;;;5013733;28;20524;-85
2023/08/25 07:21:36;;;;;;;10.67;9.60;;;23.70;1.00;;;;;;5007784;28;20971;-87
2023/08/25 07:24:04;;;;;;;12.20;11.00;;;23.80;1.00;;;;;;5020675;28;20432;-85
2023/08/25 07:26:31;;;;;;;11.50;9.80;;;23.90;1.00;;;;;;5015824;28;20502;-87
2023/08/25 07:28:59;;;;;;;9.17;8.37;;;24.20;99.90;;;;;;5013627;28;20929;-86
2023/08/25 07:31:26;;;;;;;11.07;10.00;;;;;;;;;;5014097;28;20452;-85
2023/08/25 07:34:03;;;;;;;12.57;11.37;;;24.00;1.00;;;;;;5011234;28;20552;-86
2023/08/25 07:36:30;;;;;;;11.13;10.20;;;23.90;99.90;;;;;;5008219;28;20440;-87
2023/08/25 07:38:57;;;;;;;15.40;9.60;;;24.20;1.00;;;;;;5004644;28;20524;-88
2023/08/25 07:41:24;;;;;;;9.03;8.23;;;24.50;99.90;;;;;;5003508;28;21088;-89
2023/08/25 07:44:42;;;;;;;9.77;8.90;;;24.40;1.00;;;;;;5003266;28;20452;-89
2023/08/25 08:38:34;;;;;;;10.73;9.83;;;;;;;;;;5101839;23;20527;-87
2023/08/25 08:41:03;;;;;;;11.40;10.40;;;;;;;;;;5005463;28;20476;-86
2023/08/25 08:43:42;;;;;;;12.90;11.60;;;25.50;1.00;;;;;;5000966;28;20463;-87
2023/08/25 08:46:13;;;;;;;12.20;11.00;;;25.60;1.00;;;;;;5013335;28;20428;-87
2023/08/25 08:48:41;;;;;;;12.00;11.00;;;25.60;1.00;;;;;;5013949;28;20479;-87
2023/08/25 08:51:08;;;;;;;12.27;11.17;;;25.60;1.00;;;;;;5011442;28;20455;-87
2023/08/25 08:53:38;;;;;;;10.03;9.00;;;25.80;1.00;;;;;;5004510;28;20516;-87
2023/08/25 08:56:08;;;;;;;9.80;8.87;;;25.80;1.00;;;;;;5001349;28;20464;-87
2023/08/25 08:58:40;;;;;;;9.90;9.10;;;;;;;;;;5013531;28;20464;-86
2023/08/25 09:01:08;;;;;;;10.10;9.30;;;;;;;;;;5017281;28;20445;-86
2023/08/25 09:03:36;;;;;;;9.60;8.80;;;;;;;;;;5017383;28;20448;-86
2023/08/25 09:06:04;;;;;;;13.03;11.73;;;;;;;;;;5016745;28;20457;-86
2023/08/25 09:08:35;;;;;;;12.87;11.50;;;;;;;;;;5016112;28;20456;-87
2023/08/25 09:11:06;;;;;;;12.60;11.40;;;26.10;1.00;;;;;;5015871;28;20457;-87
2023/08/25 09:13:36;;;;;;;9.80;8.90;;;;;;;;;;5015986;28;20452;-88
2023/08/25 09:16:13;;;;;;;9.67;8.67;;;26.20;1.00;;;;;;5016361;28;20480;-86
2023/08/25 09:18:42;;;;;;;13.67;11.03;;;;;;;;;;5016920;28;20467;-87
2023/08/25 09:21:19;;;;;;;14.50;10.93;;;26.30;1.00;;;;;;5016384;28;20459;-87
2023/08/25 09:23:55;;;;;;;9.00;8.20;;;26.90;99.90;;;;;;5017341;28;20451;-87
2023/08/25 09:26:24;;;;;;;9.23;8.43;;;26.30;1.00;;;;;;5014500;28;20428;-87
2023/08/25 09:28:53;;;;;;;13.33;12.10;;;;;;;;;;5015144;28;20473;-86
2023/08/25 09:31:24;;;;;;;12.90;11.63;;;;;;;;;;5015132;28;20451;-87
2023/08/25 09:33:52;;;;;;;8.90;8.03;;;;;;;;;;5017316;28;20447;-87
2023/08/25 09:36:20;;;;;;;9.53;8.57;;;;;;;;;;5016338;28;20445;-87
2023/08/25 09:38:53;;;;;;;22.43;16.63;;;;;;;;;;5005951;28;20480;-85
2023/08/25 09:41:25;;;;;;;9.13;8.30;;;;;;;;;;5002773;28;20566;-87
2023/08/25 09:43:59;;;;;;;14.03;12.67;;;26.60;1.00;;;;;;5004548;28;20437;-87
2023/08/25 09:46:29;;;;;;;12.57;11.27;;;;;;;;;;5014662;28;20472;-87
2023/08/25 09:49:04;;;;;;;9.70;8.63;;;26.90;99.90;;;;;;5017899;28;20476;-86
2023/08/25 09:51:36;;;;;;;15.47;13.83;;;26.90;1.00;;;;;;5018537;28;20451;-86
2023/08/25 09:54:12;;;;;;;12.13;11.03;;;26.90;1.00;;;;;;5006033;28;20439;-87
2023/08/25 09:56:42;;;;;;;16.00;13.23;;;27.00;1.00;;;;;;5003474;28;20452;-88
2023/08/25 09:59:13;;;;;;;27.10;22.00;;;27.10;1.00;;;;;;5003209;28;20460;-87
2023/08/25 10:01:42;;;;;;;20.20;18.10;;;27.10;1.00;;;;;;5003905;28;20487;-87
2023/08/25 10:04:10;;;;;;;12.83;11.73;;;;;;;;;;5002002;28;20448;-87
2023/08/25 10:06:40;;;;;;;27.20;24.20;;;27.00;1.00;;;;;;5001037;28;20456;-88
2023/08/25 10:09:09;;;;;;;14.10;12.70;;;27.00;1.00;;;;;;5002369;28;20495;-87
2023/08/25 10:11:40;;;;;;;14.37;13.00;;;27.00;1.00;;;;;;5002878;28;20451;-87
2023/08/25 10:14:10;;;;;;;13.27;12.10;;;;;;;;;;5001818;28;20444;-88
2023/08/25 10:16:40;;;;;;;14.77;13.23;;;27.00;1.00;;;;;;5001563;28;20476;-88
2023/08/25 10:19:13;;;;;;;12.87;11.50;;;27.10;1.00;;;;;;5000923;28;20530;-88
2023/08/25 10:21:42;;;;;;;20.27;15.90;;;27.20;1.00;;;;;;5001747;28;20472;-87
2023/08/25 10:24:16;;;;;;;12.43;11.40;;;;;;;;;;5002584;28;20448;-87
2023/08/25 10:26:50;;;;;;;11.40;10.30;;;;;;;;;;5003945;28;20957;-87
2023/08/25 10:29:19;;;;;;;14.20;12.97;;;27.30;1.00;;;;;;5003361;28;20472;-87
2023/08/25 10:31:47;;;;;;;13.50;12.17;;;;;;;;;;5006611;28;20444;-88
2023/08/25 10:34:36;;;;;;;10.30;9.27;;;27.30;1.00;;;;;;5006138;28;20500;-88
2023/08/25 10:37:07;;;;;;;10.67;8.80;;;27.30;1.00;;;;;;5000341;28;20448;-88
2023/08/25 10:39:52;;;;;;;11.60;10.40;;;27.10;99.90;;;;;;5009261;28;20476;-87
2023/08/25 10:42:23;;;;;;;10.70;9.67;;;27.30;1.00;;;;;;5012467;28;20495;-87
2023/08/25 10:44:55;;;;;;;10.53;9.60;;;27.30;1.00;;;;;;5006138;28;20433;-87
2023/08/25 10:47:22;;;;;;;11.20;10.37;;;;;;;;;;5006511;28;20488;-89
2023/08/25 10:49:53;;;;;;;9.97;9.03;;;27.10;1.00;;;;;;5017862;28;20461;-84
2023/08/25 10:52:21;;;;;;;9.83;8.83;;;;;;;;;;5018723;28;20417;-86
2023/08/25 10:54:49;;;;;;;11.40;10.40;;;;;;;;;;5012276;28;20429;-87
2023/08/25 10:57:41;;;;;;;11.00;9.90;;;27.00;1.00;;;;;;5005970;28;20479;-88
2023/08/25 11:00:29;;;;;;;11.57;10.60;;;27.00;1.00;;;;;;5006083;28;20439;-88
2023/08/25 11:02:56;;;;;;;11.20;10.20;;;27.00;1.00;;;;;;5004062;28;20509;-87
2023/08/25 11:05:46;;;;;;;10.43;9.10;;;27.00;1.00;;;;;;5004145;28;20440;-88
2023/08/25 11:08:25;;;;;;;10.50;9.60;;;;;;;;;;5004401;28;20456;-87
2023/08/25 11:11:18;;;;;;;9.10;8.40;;;27.00;1.00;;;;;;5006524;28;20452;-87
2023/08/25 11:13:46;;;;;;;10.20;9.30;;;;;;;;;;5002629;28;20471;-87
2023/08/25 11:16:14;;;;;;;9.47;8.67;;;27.00;1.00;;;;;;5010676;28;20472;-88
2023/08/25 11:18:42;;;;;;;10.20;8.03;;;;;;;;;;5004750;28;20464;-88
2023/08/25 11:21:09;;;;;;;8.50;7.87;;;;;;;;;;5006465;28;20476;-88
2023/08/25 11:23:38;;;;;;;8.03;7.23;;;27.10;1.50;;;;;;5011663;28;20511;-87
2023/08/25 11:26:05;;;;;;;10.27;9.27;;;;;;;;;;5012231;28;20494;-87
2023/08/25 11:28:33;;;;;;;9.43;8.50;;;27.00;1.00;;;;;;5002886;28;20468;-88
2023/08/25 11:31:03;;;;;;;9.27;8.33;;;27.00;1.00;;;;;;5005351;28;20452;-87
2023/08/25 11:33:31;;;;;;;10.77;9.63;;;27.10;99.90;;;;;;5021654;28;20456;-86
2023/08/25 11:35:59;;;;;;;10.57;9.50;;;;;;;;;;5021409;28;20429;-87
2023/08/25 11:38:26;;;;;;;9.47;8.70;;;;;;;;;;5012332;28;20463;-87
2023/08/25 11:40:55;;;;;;;10.60;9.50;;;26.90;99.90;;;;;;5021822;28;20447;-86
2023/08/25 11:43:28;;;;;;;10.53;9.30;;;27.40;1.00;;;;;;5021709;28;20466;-86
2023/08/25 11:45:55;;;;;;;9.17;8.33;;;;;;;;;;5021497;28;20475;-87
2023/08/25 11:48:23;;;;;;;7.20;6.60;;;27.50;1.00;;;;;;5021615;28;20457;-88
2023/08/25 11:50:50;;;;;;;7.93;7.23;;;27.50;1.00;;;;;;5016259;28;20457;-88
2023/08/25 11:53:18;;;;;;;7.63;6.90;;;;;;;;;;5006949;28;20536;-88
2023/08/25 11:56:03;;;;;;;8.43;7.53;;;;;;;;;;5009418;28;20432;-87
2023/08/25 11:58:34;;;;;;;8.77;8.00;;;;;;;;;;5003905;28;20472;-88
2023/08/25 12:01:02;;;;;;;6.97;6.47;;;;;;;;;;5005865;28;20452;-88
2023/08/25 12:03:30;;;;;;;8.57;7.90;;;;;;;;;;5021219;28;20464;-86
2023/08/25 12:06:00;;;;;;;9.20;8.50;;;28.00;1.00;;;;;;5020172;28;20496;-86
2023/08/25 12:08:27;;;;;;;12.23;10.20;;;;;;;;;;5021056;28;20452;-86
2023/08/25 12:10:55;;;;;;;9.43;8.73;;;27.90;32.70;;;;;;5005298;28;20437;-88
2023/08/25 12:13:26;;;;;;;10.87;9.73;;;27.50;66.30;;;;;;5000376;28;20566;-88
2023/08/25 12:15:54;;;;;;;10.90;10.17;;;27.90;1.00;;;;;;5001662;28;20456;-88
2023/08/25 12:18:22;;;;;;;9.20;8.40;;;;;;;;;;5007107;28;20473;-87
2023/08/25 12:20:51;;;;;;;14.17;12.67;;;;;;;;;;5004922;28;20552;-88
2023/08/25 12:23:19;;;;;;;16.20;14.70;;;;;;;;;;5005374;28;20540;-88
2023/08/25 12:25:46;;;;;;;10.97;9.83;;;;;;;;;;5003477;28;20448;-88
2023/08/25 12:28:13;;;;;;;11.90;10.80;;;;;;;;;;4999202;28;20476;-88
2023/08/25 12:30:40;;;;;;;7.67;7.07;;;;;;;;;;5000443;28;20537;-88
2023/08/25 12:33:08;;;;;;;7.77;7.07;;;;;;;;;;5000951;28;20484;-87
2023/08/25 12:35:35;;;;;;;11.40;7.10;;;;;;;;;;5001826;28;20448;-88
2023/08/25 12:38:04;;;;;;;10.87;7.20;;;27.70;1.00;;;;;;5004732;28;20985;-87
2023/08/25 12:40:31;;;;;;;7.97;7.17;;;;;;;;;;5000648;28;20463;-87
2023/08/25 12:42:58;;;;;;;9.10;7.83;;;;;;;;;;4999978;28;20851;-88
2023/08/25 12:45:26;;;;;;;8.90;7.87;;;;;;;;;;4999383;28;20480;-88
2023/08/25 12:47:53;;;;;;;7.60;6.83;;;;;;;;;;4999261;28;20492;-87
2023/08/25 12:50:20;;;;;;;11.83;6.90;;;;;;;;;;5000202;28;20457;-88
2023/08/25 12:52:47;;;;;;;6.97;6.40;;;;;;;;;;5000303;28;20476;-87
2023/08/25 12:55:16;;;;;;;6.90;6.30;;;27.40;99.90;;;;;;4999874;28;20452;-87
2023/08/25 12:57:44;;;;;;;9.10;7.90;;;27.70;99.90;;;;;;5003884;28;20456;-86
2023/08/25 13:00:13;;;;;;;7.40;6.70;;;27.30;1.00;;;;;;5014051;28;20478;-86
2023/08/25 13:02:40;;;;;;;7.00;6.50;;;;;;;;;;5002077;28;20488;-87
2023/08/25 13:05:09;;;;;;;7.47;6.83;;;;;;;;;;4999663;28;20432;-87
2023/08/25 13:07:36;;;;;;;9.70;7.90;;;;;;;;;;4998790;28;20483;-87
2023/08/25 13:10:04;;;;;;;8.30;7.60;;;;;;;;;;4999806;28;20452;-87
2023/08/25 13:12:33;;;;;;;8.50;7.20;;;27.10;1.00;;;;;;5000756;28;20456;-87
2023/08/25 13:15:00;;;;;;;7.07;6.47;;;;;;;;;;4999129;28;20511;-87
2023/08/25 13:17:27;;;;;;;12.57;9.27;;;;;;;;;;4999055;28;20519;-87
2023/08/25 13:19:55;;;;;;;9.43;8.40;;;;;;;;;;5003613;28;20952;-87
2023/08/25 13:22:22;;;;;;;8.37;7.57;;;;;;;;;;5000869;28;20463;-87
2023/08/25 13:24:49;;;;;;;7.70;6.77;;;;;;;;;;5000568;28;20505;-88
2023/08/25 13:27:16;;;;;;;12.70;9.47;;;26.60;1.00;;;;;;5003879;28;20552;-87
2023/08/25 13:29:45;;;;;;;10.90;9.83;;;25.90;1.00;;;;;;4999708;28;20472;-88
2023/08/25 13:32:12;;;;;;;8.30;7.50;;;;;;;;;;5003999;28;20460;-88
2023/08/25 13:34:41;;;;;;;7.37;6.87;;;;;;;;;;5013957;28;20453;-87
2023/08/25 13:37:09;;;;;;;8.67;7.80;;;;;;;;;;5017552;28;20533;-87
2023/08/25 13:39:40;;;;;;;8.47;7.67;;;25.90;5.80;;;;;;5006379;28;20468;-88
2023/08/25 13:42:10;;;;;;;9.03;8.23;;;;;;;;;;5003310;28;20507;-88
2023/08/25 13:44:38;;;;;;;7.77;7.00;;;25.80;1.00;;;;;;5018389;28;20495;-86
2023/08/25 13:47:08;;;;;;;7.97;7.30;;;25.90;99.90;;;;;;5015610;28;20465;-87
2023/08/25 13:49:35;;;;;;;9.60;8.70;;;;;;;;;;5009875;28;20528;-87
2023/08/25 13:52:02;;;;;;;10.33;9.27;;;;;;;;;;5016990;28;20960;-87
2023/08/25 13:54:30;;;;;;;8.73;7.83;;;;;;;;;;5013458;28;20539;-87
2023/08/25 13:56:57;;;;;;;10.60;9.60;;;;;;;;;;5012394;28;20448;-87
2023/08/25 13:59:24;;;;;;;10.10;9.20;;;;;;;;;;5005553;28;21011;-87
2023/08/25 14:01:52;;;;;;;8.83;7.93;;;;;;;;;;5004080;28;20455;-87
2023/08/25 14:04:20;;;;;;;8.80;8.10;;;25.50;1.00;;;;;;4999199;28;20480;-87
2023/08/25 14:06:47;;;;;;;11.40;9.47;;;;;;;;;;5000106;28;20804;-88
2023/08/25 14:09:14;;;;;;;10.30;9.40;;;25.40;99.90;;;;;;4998699;28;20531;-87
2023/08/25 14:11:41;;;;;;;13.57;10.20;;;24.90;99.90;;;;;;4999994;28;20455;-88
2023/08/25 14:14:09;;;;;;;9.80;8.13;;;25.10;95.70;;;;;;4999708;28;20868;-87
2023/08/25 14:16:36;;;;;;;9.97;8.63;;;25.10;1.00;;;;;;4998236;28;20460;-87
2023/08/25 14:19:06;;;;;;;9.50;8.17;;;;;;;;;;5000969;28;20511;-87
2023/08/25 14:21:35;;;;;;;15.53;13.47;;;25.10;1.00;;;;;;4997760;28;20840;-88
2023/08/25 14:24:02;;;;;;;16.13;10.27;;;;;;;;;;4997783;28;20570;-88
2023/08/25 14:26:29;;;;;;;8.23;7.63;;;;;;;;;;4997775;28;20511;-87
2023/08/25 14:28:56;;;;;;;10.80;9.83;;;;;;;;;;4999280;28;20499;-88
2023/08/25 14:31:23;;;;;;;10.43;9.53;;;;;;;;;;5004005;28;20457;-87
2023/08/25 14:33:50;;;;;;;10.57;9.50;;;;;;;;;;5002450;28;20531;-87
2023/08/25 14:36:17;;;;;;;9.97;9.17;;;24.90;99.90;;;;;;5004120;28;20452;-88
2023/08/25 14:38:45;;;;;;;13.70;9.30;;;25.00;99.90;;;;;;5015026;23;20566;-89
2023/08/25 14:41:12;;;;;;;11.37;10.23;;;25.00;99.90;;;;;;5002695;28;20424;-89
2023/08/25 14:43:40;;;;;;;11.60;10.10;;;25.10;99.90;;;;;;5004845;28;20480;-90
2023/08/25 14:46:09;;;;;;;9.83;9.00;;;25.30;99.90;;;;;;5006096;28;20452;-89
2023/08/25 14:48:36;;;;;;;9.50;8.57;;;25.50;1.00;;;;;;5003576;28;20468;-89
2023/08/25 14:51:03;;;;;;;11.07;9.53;;;25.70;99.90;;;;;;5004395;28;20448;-90
2023/08/25 14:53:30;;;;;;;11.70;9.27;;;25.80;69.50;;;;;;5003626;28;20455;-89
2023/08/25 14:55:59;;;;;;;9.70;8.80;;;25.60;1.00;;;;;;5005978;28;20539;-89
2023/08/25 14:58:26;;;;;;;7.40;6.80;;;25.70;99.90;;;;;;5010021;28;20468;-90
2023/08/25 15:00:54;;;;;;;8.97;8.27;;;25.70;99.90;;;;;;5017612;28;20512;-90
2023/08/25 15:03:21;;;;;;;10.03;9.00;;;25.80;1.00;;;;;;5014322;28;20516;-89
2023/08/25 15:05:49;;;;;;;10.77;9.67;;;25.80;45.60;;;;;;5014415;28;20538;-89
2023/08/25 15:08:16;;;;;;;10.60;9.60;;;;;;;;;;5013516;28;20515;-89
2023/08/25 15:10:43;;;;;;;10.33;9.33;;;25.80;99.90;;;;;;5011033;28;20455;-89
2023/08/25 15:13:11;;;;;;;12.87;9.00;;;26.10;99.90;;;;;;5004392;28;20495;-90
2023/08/25 15:15:38;;;;;;;10.67;9.57;;;25.90;1.00;;;;;;5005599;28;20436;-89
2023/08/25 15:18:05;;;;;;;10.17;9.27;;;26.20;1.00;;;;;;5003441;28;20509;-90
2023/08/25 15:20:32;;;;;;;9.17;8.37;;;25.90;99.90;;;;;;5004155;28;20460;-90
2023/08/25 15:23:00;;;;;;;10.07;8.43;;;;;;;;;;5013031;28;20475;-89
2023/08/25 15:25:27;;;;;;;9.20;8.37;;;26.00;1.00;;;;;;5015407;28;20452;-89
2023/08/25 15:27:54;;;;;;;13.00;10.80;;;26.00;99.90;;;;;;5005440;28;20459;-89
2023/08/25 15:30:22;;;;;;;11.20;10.20;;;26.00;99.90;;;;;;5002734;28;20515;-89
2023/08/25 15:32:49;;;;;;;12.70;11.60;;;25.60;33.20;;;;;;5004139;28;20454;-89
2023/08/25 15:35:16;;;;;;;13.10;11.90;;;25.90;1.00;;;;;;5004250;28;20456;-89
2023/08/25 15:37:42;;;;;;;10.50;9.20;;;25.80;99.90;;;;;;5005702;28;20543;-89
2023/08/25 15:40:11;;;;;;;10.00;9.10;;;25.90;99.90;;;;;;5006904;28;20500;-89
2023/08/25 15:42:38;;;;;;;9.70;8.90;;;25.80;99.90;;;;;;5008100;28;20452;-89
2023/08/25 15:45:05;;;;;;;9.87;9.07;;;25.80;99.90;;;;;;5007688;28;20935;-89
2023/08/25 15:47:33;;;;;;;12.03;10.63;;;25.70;99.90;;;;;;5019617;28;20445;-89
2023/08/25 15:50:00;;;;;;;10.07;9.03;;;25.80;1.00;;;;;;5006960;28;20499;-89
2023/08/25 15:52:27;;;;;;;12.93;11.83;;;;;;;;;;5002763;28;20448;-89
2023/08/25 15:54:54;;;;;;;12.43;11.23;;;25.80;1.00;;;;;;5009329;28;20428;-88
2023/08/25 15:57:21;;;;;;;15.03;12.23;;;25.70;99.90;;;;;;5020731;28;20428;-89
2023/08/25 15:59:48;;;;;;;12.70;11.53;;;25.70;1.00;;;;;;5020270;28;20476;-89
2023/08/25 16:02:16;;;;;;;12.23;11.00;;;;;;;;;;5012693;28;20436;-89
2023/08/25 16:04:44;;;;;;;10.47;9.57;;;25.70;99.90;;;;;;5004213;28;20480;-89
2023/08/25 16:07:11;;;;;;;11.43;10.43;;;25.70;99.90;;;;;;5015640;28;20449;-89
2023/08/25 16:09:38;;;;;;;15.57;14.10;;;;;;;;;;5011752;28;20480;-89
2023/08/25 16:12:06;;;;;;;14.07;12.80;;;25.80;26.90;;;;;;5009983;28;20436;-88
2023/08/25 16:14:33;;;;;;;13.37;12.23;;;;;;;;;;5003558;28;20512;-90
2023/08/25 16:17:00;;;;;;;11.40;10.30;;;25.80;1.00;;;;;;5002750;28;20486;-89
2023/08/25 16:19:27;;;;;;;15.10;10.83;;;;;;;;;;5004579;28;20507;-89
2023/08/25 16:21:56;;;;;;;11.13;10.00;;;25.90;99.90;;;;;;5003534;28;20462;-89
2023/08/25 16:24:22;;;;;;;10.90;9.97;;;25.80;99.90;;;;;;5004210;28;20480;-89
2023/08/25 16:26:50;;;;;;;9.83;8.90;;;;;;;;;;5003061;28;20479;-89
2023/08/25 16:29:16;;;;;;;8.53;7.67;;;25.70;99.90;;;;;;5002058;28;20500;-89
2023/08/25 16:31:43;;;;;;;9.10;8.20;;;25.70;1.00;;;;;;5002154;28;20455;-89
2023/08/25 16:34:10;;;;;;;10.10;9.10;;;25.70;11.20;;;;;;5001143;28;20865;-90
2023/08/25 16:36:37;;;;;;;11.03;10.03;;;;;;;;;;5000404;28;20437;-89
2023/08/25 16:39:06;;;;;;;10.30;9.30;;;25.70;1.00;;;;;;4998994;28;20551;-89
2023/08/25 16:41:32;;;;;;;11.37;10.30;;;25.50;99.90;;;;;;4998226;28;20444;-89
2023/08/25 16:43:59;;;;;;;10.60;9.50;;;25.50;1.00;;;;;;4999804;28;20878;-89
2023/08/25 16:46:26;;;;;;;10.10;9.03;;;25.50;99.90;;;;;;5001171;28;20448;-89
2023/08/25 16:48:53;;;;;;;9.53;8.60;;;25.40;99.90;;;;;;5008154;28;20537;-89
2023/08/25 16:51:20;;;;;;;10.20;9.30;;;25.30;99.90;;;;;;5015861;28;20484;-89
2023/08/25 16:53:47;;;;;;;10.40;9.40;;;25.30;99.90;;;;;;5013283;28;20506;-89
2023/08/25 16:56:16;;;;;;;10.03;9.10;;;25.20;99.90;;;;;;5008502;28;20512;-89
2023/08/25 16:58:43;;;;;;;11.40;10.20;;;25.10;99.90;;;;;;5005063;28;21016;-88
2023/08/25 17:01:14;;;;;;;11.70;10.70;;;25.00;99.90;;;;;;5006425;28;20818;-89
2023/08/25 17:03:40;;;;;;;14.97;12.27;;;25.00;99.90;;;;;;5004945;28;20476;-90
2023/08/25 17:06:08;;;;;;;13.03;11.73;;;;;;;;;;5011265;28;20472;-89
2023/08/25 17:08:34;;;;;;;13.17;10.10;;;24.90;99.90;;;;;;5006354;28;20492;-89
2023/08/25 17:11:02;;;;;;;10.13;9.23;;;24.80;99.90;;;;;;5003561;28;20460;-89
2023/08/25 17:13:31;;;;;;;14.07;12.53;;;24.90;99.90;;;;;;5011621;28;20459;-89
2023/08/25 17:15:59;;;;;;;10.70;9.77;;;;;;;;;;5018329;28;20448;-89
2023/08/25 17:18:26;;;;;;;12.30;11.30;;;24.70;1.00;;;;;;5018581;28;20469;-89
2023/08/25 17:20:58;;;;;;;12.17;11.00;;;24.80;1.00;;;;;;5018171;28;20476;-89
2023/08/25 17:23:25;;;;;;;13.23;10.57;;;24.70;1.00;;;;;;5008751;28;20472;-89
2023/08/25 17:25:52;;;;;;;10.77;9.60;;;24.70;1.00;;;;;;5006846;28;20524;-89
2023/08/25 17:28:20;;;;;;;12.43;11.20;;;24.90;92.40;;;;;;5003886;28;20464;-88
2023/08/25 17:30:48;;;;;;;14.07;11.97;;;24.60;1.00;;;;;;5004045;28;20491;-89
2023/08/25 17:33:15;;;;;;;11.10;10.10;;;24.60;1.00;;;;;;5003374;28;20448;-89
2023/08/25 17:35:44;;;;;;;12.03;9.80;;;24.60;1.00;;;;;;5006584;28;20479;-89
2023/08/25 17:38:11;;;;;;;13.87;11.80;;;24.80;99.90;;;;;;5007579;28;20448;-89
2023/08/25 17:40:39;;;;;;;11.47;10.00;;;24.50;1.00;;;;;;5005106;28;20516;-89
2023/08/25 17:43:07;;;;;;;12.53;11.33;;;;;;;;;;5015682;28;20448;-88
2023/08/25 17:45:34;;;;;;;12.73;11.50;;;;;;;;;;5014403;28;20472;-89
2023/08/25 17:48:03;;;;;;;16.63;13.67;;;;;;;;;;5017060;28;20463;-89
2023/08/25 17:50:30;;;;;;;14.20;12.10;;;24.60;1.00;;;;;;5019371;28;20413;-89
2023/08/25 17:52:58;;;;;;;17.43;12.90;;;24.50;1.00;;;;;;5018686;28;20467;-89
2023/08/25 17:55:25;;;;;;;14.63;12.17;;;24.60;1.00;;;;;;5004617;28;20531;-89
2023/08/25 17:57:52;;;;;;;16.27;14.37;;;;;;;;;;5006449;28;20468;-89
2023/08/25 18:00:20;;;;;;;16.47;13.77;;;;;;;;;;5011404;28;20473;-89
2023/08/25 18:02:47;;;;;;;16.07;14.47;;;24.40;1.00;;;;;;5011304;28;20439;-89
2023/08/25 18:05:16;;;;;;;14.53;13.10;;;;;;;;;;5010428;28;20487;-89
2023/08/25 18:07:43;;;;;;;15.60;13.80;;;;;;;;;;5014950;28;20425;-89
2023/08/25 18:10:10;;;;;;;15.70;12.80;;;24.40;1.00;;;;;;5000503;28;20468;-89
2023/08/25 18:12:37;;;;;;;13.43;12.03;;;;;;;;;;4999927;28;20516;-89
2023/08/25 18:15:05;;;;;;;14.13;10.43;;;24.30;1.00;;;;;;5001813;28;20527;-89
2023/08/25 18:17:33;;;;;;;13.33;11.70;;;24.30;1.00;;;;;;5007281;28;20448;-89
2023/08/25 18:20:00;;;;;;;12.27;11.13;;;;;;;;;;5010177;28;20496;-89
2023/08/25 18:22:30;;;;;;;11.63;10.60;;;;;;;;;;5014793;28;20432;-89
2023/08/25 18:24:57;;;;;;;10.53;9.53;;;;;;;;;;5012396;28;20531;-90
2023/08/25 18:27:25;;;;;;;11.47;10.27;;;;;;;;;;5011353;28;20444;-89
2023/08/25 18:29:53;;;;;;;13.20;11.00;;;24.30;1.00;;;;;;5011383;28;20476;-89
2023/08/25 18:32:20;;;;;;;13.97;12.67;;;24.20;1.00;;;;;;5009996;28;20452;-89
2023/08/25 18:34:47;;;;;;;14.97;13.40;;;24.10;1.00;;;;;;5010901;28;20575;-89
2023/08/25 18:37:14;;;;;;;11.70;10.57;;;;;;;;;;5008048;28;20452;-88
2023/08/25 18:39:43;;;;;;;10.87;9.97;;;24.10;1.00;;;;;;5005191;28;20483;-89
2023/08/25 18:42:10;;;;;;;16.63;11.53;;;24.10;1.00;;;;;;5014066;28;20453;-89
2023/08/25 18:44:38;;;;;;;12.00;11.00;;;;;;;;;;5009214;28;20507;-89
2023/08/25 18:47:05;;;;;;;17.13;15.63;;;24.10;99.90;;;;;;5013888;28;20528;-89
2023/08/25 18:49:34;;;;;;;13.97;12.70;;;24.10;99.90;;;;;;5015984;28;20477;-89
2023/08/25 18:52:01;;;;;;;15.53;13.00;;;24.00;99.90;;;;;;5009888;28;20457;-89
2023/08/25 18:54:29;;;;;;;11.40;10.40;;;;;;;;;;5014596;28;20448;-90
2023/08/25 18:57:01;;;;;;;11.37;10.43;;;24.40;99.90;;;;;;5013416;28;20456;-90
2023/08/25 18:59:30;;;;;;;12.67;11.30;;;24.10;1.00;;;;;;5013335;28;20449;-90
2023/08/25 19:01:57;;;;;;;11.80;10.73;;;24.00;1.00;;;;;;5014500;28;20444;-89
2023/08/25 19:04:24;;;;;;;12.93;11.37;;;24.00;1.00;;;;;;5013882;28;20476;-89
2023/08/25 19:06:53;;;;;;;11.33;9.73;;;24.30;29.80;;;;;;5016315;28;20424;-89
2023/08/25 19:09:21;;;;;;;10.60;9.57;;;;;;;;;;5016689;28;20565;-89
2023/08/25 19:11:48;;;;;;;8.83;8.10;;;24.00;1.00;;;;;;5015466;28;20524;-89
2023/08/25 19:14:17;;;;;;;11.53;10.50;;;23.90;1.00;;;;;;5014529;28;20455;-89
2023/08/25 19:16:44;;;;;;;11.40;10.20;;;24.20;99.90;;;;;;5016777;28;20464;-89
2023/08/25 19:19:11;;;;;;;9.07;8.17;;;;;;;;;;5021535;28;20460;-88
2023/08/25 19:21:39;;;;;;;9.37;8.43;;;;;;;;;;5019601;28;20429;-89
2023/08/25 19:24:06;;;;;;;7.97;7.13;;;23.60;99.90;;;;;;5019265;28;20440;-89
2023/08/25 19:26:33;;;;;;;13.20;11.97;;;;;;;;;;5021399;28;20496;-89